sensor_id;sensor_type;location;lat;lon;timestamp;temperature;humidity
1413;DHT22;701;52.526;13.408;2022-09-29T00:00:11;10.50;33.00
1413;DHT22;701;52.526;13.408;2022-09-29T00:02:37;10.40;33.00
1413;DHT22;701;52.526;13.408;2022-09-29T00:05:03;10.40;33.20
1413;DHT22;701;52.526;13.408;2022-09-29T00:07:29;10.30;33.50
1413;DHT22;701;52.526;13.408;2022-09-29T00:09:56;10.20;33.50
1413;DHT22;701;52.526;13.408;2022-09-29T00:12:22;10.20;33.90
1413;DHT22;701;52.526;13.408;2022-09-29T00:14:48;10.10;34.10
1413;DHT22;701;52.526;13.408;2022-09-29T00:17:14;10.10;34.60
1413;DHT22;701;52.526;13.408;2022-09-29T00:19:40;10.00;34.60
1413;DHT22;701;52.526;13.408;2022-09-29T00:22:05;9.90;35.80
1413;DHT22;701;52.526;13.408;2022-09-29T00:24:31;9.90;36.20
1413;DHT22;701;52.526;13.408;2022-09-29T00:26:57;9.80;36.40
1413;DHT22;701;52.526;13.408;2022-09-29T00:29:23;9.80;36.40
1413;DHT22;701;52.526;13.408;2022-09-29T00:31:48;9.70;36.30
1413;DHT22;701;52.526;13.408;2022-09-29T00:34:14;9.70;36.70
1413;DHT22;701;52.526;13.408;2022-09-29T00:36:39;9.60;36.80
1413;DHT22;701;52.526;13.408;2022-09-29T00:39:06;9.60;37.10
1413;DHT22;701;52.526;13.408;2022-09-29T00:41:34;9.50;37.20
1413;DHT22;701;52.526;13.408;2022-09-29T00:49:37;9.40;37.80
1413;DHT22;701;52.526;13.408;2022-09-29T00:52:13;9.30;37.70
1413;DHT22;701;52.526;13.408;2022-09-29T00:54:48;9.30;37.80
1413;DHT22;701;52.526;13.408;2022-09-29T00:57:17;9.20;38.30
1413;DHT22;701;52.526;13.408;2022-09-29T00:59:46;9.20;39.20
1413;DHT22;701;52.526;13.408;2022-09-29T01:02:14;9.20;39.70
1413;DHT22;701;52.526;13.408;2022-09-29T01:04:41;9.20;39.80
1413;DHT22;701;52.526;13.408;2022-09-29T01:07:08;9.20;39.60
1413;DHT22;701;52.526;13.408;2022-09-29T01:09:37;9.10;40.20
1413;DHT22;701;52.526;13.408;2022-09-29T01:12:03;9.10;40.30
1413;DHT22;701;52.526;13.408;2022-09-29T01:14:31;9.10;41.00
1413;DHT22;701;52.526;13.408;2022-09-29T01:16:57;9.10;41.30
1413;DHT22;701;52.526;13.408;2022-09-29T01:25:44;9.00;42.20
1413;DHT22;701;52.526;13.408;2022-09-29T01:31:23;9.00;42.80
1413;DHT22;701;52.526;13.408;2022-09-29T01:39:42;8.90;42.60
1413;DHT22;701;52.526;13.408;2022-09-29T01:42:21;8.90;42.50
1413;DHT22;701;52.526;13.408;2022-09-29T01:44:52;8.90;42.70
1413;DHT22;701;52.526;13.408;2022-09-29T01:47:35;8.80;42.70
1413;DHT22;701;52.526;13.408;2022-09-29T01:50:15;8.80;42.90
1413;DHT22;701;52.526;13.408;2022-09-29T01:52:45;8.80;43.00
1413;DHT22;701;52.526;13.408;2022-09-29T01:55:16;8.80;43.50
1413;DHT22;701;52.526;13.408;2022-09-29T02:00:20;8.80;44.30
1413;DHT22;701;52.526;13.408;2022-09-29T02:03:08;8.80;44.30
1413;DHT22;701;52.526;13.408;2022-09-29T02:08:21;8.80;44.30
1413;DHT22;701;52.526;13.408;2022-09-29T02:10:59;8.80;44.30
1413;DHT22;701;52.526;13.408;2022-09-29T02:13:30;8.80;44.90
1413;DHT22;701;52.526;13.408;2022-09-29T02:15:56;8.80;44.60
1413;DHT22;701;52.526;13.408;2022-09-29T02:18:27;8.80;44.50
1413;DHT22;701;52.526;13.408;2022-09-29T02:20:54;8.90;45.00
1413;DHT22;701;52.526;13.408;2022-09-29T02:23:20;8.90;45.80
1413;DHT22;701;52.526;13.408;2022-09-29T02:25:47;8.90;45.60
1413;DHT22;701;52.526;13.408;2022-09-29T02:28:15;9.00;45.80
1413;DHT22;701;52.526;13.408;2022-09-29T02:30:41;9.00;45.50
1413;DHT22;701;52.526;13.408;2022-09-29T02:33:17;9.10;46.30
1413;DHT22;701;52.526;13.408;2022-09-29T02:59:20;9.90;45.10
1413;DHT22;701;52.526;13.408;2022-09-29T03:01:54;9.90;44.40
1413;DHT22;701;52.526;13.408;2022-09-29T03:04:27;10.00;43.80
1413;DHT22;701;52.526;13.408;2022-09-29T03:06:53;10.00;42.90
1413;DHT22;701;52.526;13.408;2022-09-29T03:09:18;10.00;42.50
1413;DHT22;701;52.526;13.408;2022-09-29T03:11:44;10.10;42.40
1413;DHT22;701;52.526;13.408;2022-09-29T03:14:10;10.10;42.10
1413;DHT22;701;52.526;13.408;2022-09-29T03:16:36;10.20;41.90
1413;DHT22;701;52.526;13.408;2022-09-29T03:19:03;10.20;41.40
1413;DHT22;701;52.526;13.408;2022-09-29T03:21:30;10.20;41.20
1413;DHT22;701;52.526;13.408;2022-09-29T03:23:55;10.20;40.90
1413;DHT22;701;52.526;13.408;2022-09-29T03:26:22;10.20;40.30
1413;DHT22;701;52.526;13.408;2022-09-29T03:28:49;10.30;40.30
1413;DHT22;701;52.526;13.408;2022-09-29T03:31:15;10.30;40.30
1413;DHT22;701;52.526;13.408;2022-09-29T03:33:40;10.30;40.30
1413;DHT22;701;52.526;13.408;2022-09-29T03:36:07;10.30;40.30
1413;DHT22;701;52.526;13.408;2022-09-29T03:38:33;10.30;40.20
1413;DHT22;701;52.526;13.408;2022-09-29T03:40:59;10.40;40.00
1413;DHT22;701;52.526;13.408;2022-09-29T03:43:25;10.40;39.60
1413;DHT22;701;52.526;13.408;2022-09-29T03:45:52;10.40;39.50
1413;DHT22;701;52.526;13.408;2022-09-29T03:48:19;10.40;39.30
1413;DHT22;701;52.526;13.408;2022-09-29T03:50:45;10.40;39.00
1413;DHT22;701;52.526;13.408;2022-09-29T03:53:12;10.50;39.00
1413;DHT22;701;52.526;13.408;2022-09-29T03:55:38;10.50;38.90
1413;DHT22;701;52.526;13.408;2022-09-29T03:58:03;10.50;38.80
1413;DHT22;701;52.526;13.408;2022-09-29T04:00:29;10.50;38.60
1413;DHT22;701;52.526;13.408;2022-09-29T04:02:55;10.50;38.40
1413;DHT22;701;52.526;13.408;2022-09-29T04:05:21;10.50;38.30
1413;DHT22;701;52.526;13.408;2022-09-29T04:07:47;10.50;38.20
1413;DHT22;701;52.526;13.408;2022-09-29T04:10:13;10.60;38.90
1413;DHT22;701;52.526;13.408;2022-09-29T04:12:38;10.60;38.00
1413;DHT22;701;52.526;13.408;2022-09-29T04:15:04;10.60;37.90
1413;DHT22;701;52.526;13.408;2022-09-29T04:17:30;10.60;37.80
1413;DHT22;701;52.526;13.408;2022-09-29T04:19:56;10.60;37.70
1413;DHT22;701;52.526;13.408;2022-09-29T04:22:21;10.60;37.50
1413;DHT22;701;52.526;13.408;2022-09-29T04:24:47;10.60;37.30
1413;DHT22;701;52.526;13.408;2022-09-29T04:27:14;10.60;37.20
1413;DHT22;701;52.526;13.408;2022-09-29T04:29:39;10.60;37.10
1413;DHT22;701;52.526;13.408;2022-09-29T04:32:05;10.70;37.20
1413;DHT22;701;52.526;13.408;2022-09-29T04:34:31;10.70;37.00
1413;DHT22;701;52.526;13.408;2022-09-29T04:36:57;10.70;36.90
1413;DHT22;701;52.526;13.408;2022-09-29T04:39:22;10.70;36.80
1413;DHT22;701;52.526;13.408;2022-09-29T04:41:48;10.70;36.70
1413;DHT22;701;52.526;13.408;2022-09-29T04:44:14;10.70;36.60
1413;DHT22;701;52.526;13.408;2022-09-29T04:46:39;10.70;36.50
1413;DHT22;701;52.526;13.408;2022-09-29T04:49:05;10.70;36.30
1413;DHT22;701;52.526;13.408;2022-09-29T04:51:31;10.70;36.30
1413;DHT22;701;52.526;13.408;2022-09-29T04:53:57;10.70;36.30
1413;DHT22;701;52.526;13.408;2022-09-29T04:56:23;10.80;36.30
1413;DHT22;701;52.526;13.408;2022-09-29T04:58:49;10.80;36.40
1413;DHT22;701;52.526;13.408;2022-09-29T05:01:14;10.70;36.30
1413;DHT22;701;52.526;13.408;2022-09-29T05:03:41;10.80;36.40
1413;DHT22;701;52.526;13.408;2022-09-29T05:06:08;10.80;36.30
1413;DHT22;701;52.526;13.408;2022-09-29T05:08:34;10.80;36.20
1413;DHT22;701;52.526;13.408;2022-09-29T05:11:07;10.80;35.90
1413;DHT22;701;52.526;13.408;2022-09-29T05:13:33;10.80;35.90
1413;DHT22;701;52.526;13.408;2022-09-29T05:15:59;10.90;35.90
1413;DHT22;701;52.526;13.408;2022-09-29T05:18:25;10.90;35.80
1413;DHT22;701;52.526;13.408;2022-09-29T05:20:51;10.80;35.70
1413;DHT22;701;52.526;13.408;2022-09-29T05:23:18;10.90;35.70
1413;DHT22;701;52.526;13.408;2022-09-29T05:25:43;10.90;35.60
1413;DHT22;701;52.526;13.408;2022-09-29T05:28:10;11.00;35.60
1413;DHT22;701;52.526;13.408;2022-09-29T05:30:36;11.00;35.40
1413;DHT22;701;52.526;13.408;2022-09-29T05:33:02;11.00;35.40
1413;DHT22;701;52.526;13.408;2022-09-29T05:35:28;11.00;35.40
1413;DHT22;701;52.526;13.408;2022-09-29T05:37:56;11.00;35.20
1413;DHT22;701;52.526;13.408;2022-09-29T05:40:22;11.10;35.20
1413;DHT22;701;52.526;13.408;2022-09-29T05:42:49;11.10;35.00
1413;DHT22;701;52.526;13.408;2022-09-29T05:45:15;11.20;35.00
1413;DHT22;701;52.526;13.408;2022-09-29T05:47:42;11.10;34.90
1413;DHT22;701;52.526;13.408;2022-09-29T05:50:09;11.20;34.80
1413;DHT22;701;52.526;13.408;2022-09-29T05:52:35;11.20;34.80
1413;DHT22;701;52.526;13.408;2022-09-29T05:55:01;11.20;34.60
1413;DHT22;701;52.526;13.408;2022-09-29T05:57:27;11.20;34.40
1413;DHT22;701;52.526;13.408;2022-09-29T05:59:53;11.20;34.30
1413;DHT22;701;52.526;13.408;2022-09-29T06:02:18;11.20;34.20
1413;DHT22;701;52.526;13.408;2022-09-29T06:04:44;11.30;34.40
1413;DHT22;701;52.526;13.408;2022-09-29T06:07:10;11.40;34.30
1413;DHT22;701;52.526;13.408;2022-09-29T06:09:35;11.40;34.00
1413;DHT22;701;52.526;13.408;2022-09-29T06:12:02;11.50;33.70
1413;DHT22;701;52.526;13.408;2022-09-29T06:14:27;11.50;33.60
1413;DHT22;701;52.526;13.408;2022-09-29T06:16:53;11.60;33.60
1413;DHT22;701;52.526;13.408;2022-09-29T06:19:19;11.70;33.30
1413;DHT22;701;52.526;13.408;2022-09-29T06:21:44;11.80;32.80
1413;DHT22;701;52.526;13.408;2022-09-29T06:24:10;11.80;32.80
1413;DHT22;701;52.526;13.408;2022-09-29T06:26:36;11.90;32.70
1413;DHT22;701;52.526;13.408;2022-09-29T06:29:02;11.90;32.50
1413;DHT22;701;52.526;13.408;2022-09-29T06:31:29;12.00;32.30
1413;DHT22;701;52.526;13.408;2022-09-29T06:33:56;12.10;32.00
1413;DHT22;701;52.526;13.408;2022-09-29T06:36:27;12.20;31.60
1413;DHT22;701;52.526;13.408;2022-09-29T06:39:13;12.20;31.20
1413;DHT22;701;52.526;13.408;2022-09-29T06:41:40;12.30;30.70
1413;DHT22;701;52.526;13.408;2022-09-29T06:44:07;12.30;30.30
1413;DHT22;701;52.526;13.408;2022-09-29T06:46:36;12.40;30.10
1413;DHT22;701;52.526;13.408;2022-09-29T06:49:01;12.50;30.00
1413;DHT22;701;52.526;13.408;2022-09-29T06:51:27;12.50;29.80
1413;DHT22;701;52.526;13.408;2022-09-29T06:53:53;12.60;29.30
1413;DHT22;701;52.526;13.408;2022-09-29T06:56:18;12.60;29.30
1413;DHT22;701;52.526;13.408;2022-09-29T06:58:45;12.70;28.90
1413;DHT22;701;52.526;13.408;2022-09-29T07:01:11;12.70;29.10
1413;DHT22;701;52.526;13.408;2022-09-29T07:03:37;12.70;28.70
1413;DHT22;701;52.526;13.408;2022-09-29T07:06:08;12.70;28.40
1413;DHT22;701;52.526;13.408;2022-09-29T07:08:35;12.70;28.10
1413;DHT22;701;52.526;13.408;2022-09-29T07:11:03;12.70;28.00
1413;DHT22;701;52.526;13.408;2022-09-29T07:13:29;12.70;27.60
1413;DHT22;701;52.526;13.408;2022-09-29T07:15:55;12.70;27.50
1413;DHT22;701;52.526;13.408;2022-09-29T07:18:21;12.70;27.20
1413;DHT22;701;52.526;13.408;2022-09-29T07:20:46;12.70;27.20
1413;DHT22;701;52.526;13.408;2022-09-29T07:23:12;12.70;27.30
1413;DHT22;701;52.526;13.408;2022-09-29T07:25:38;12.70;27.30
1413;DHT22;701;52.526;13.408;2022-09-29T07:28:04;12.70;27.10
1413;DHT22;701;52.526;13.408;2022-09-29T07:30:30;12.70;27.00
1413;DHT22;701;52.526;13.408;2022-09-29T07:32:56;12.70;27.00
1413;DHT22;701;52.526;13.408;2022-09-29T07:35:22;12.80;26.80
1413;DHT22;701;52.526;13.408;2022-09-29T07:37:52;12.80;26.70
1413;DHT22;701;52.526;13.408;2022-09-29T07:40:20;12.80;26.10
1413;DHT22;701;52.526;13.408;2022-09-29T07:42:47;12.90;26.20
1413;DHT22;701;52.526;13.408;2022-09-29T07:45:13;12.90;26.00
1413;DHT22;701;52.526;13.408;2022-09-29T07:47:38;12.90;26.00
1413;DHT22;701;52.526;13.408;2022-09-29T07:50:04;13.00;26.10
1413;DHT22;701;52.526;13.408;2022-09-29T07:52:30;13.00;25.80
1413;DHT22;701;52.526;13.408;2022-09-29T07:54:56;13.00;25.60
1413;DHT22;701;52.526;13.408;2022-09-29T07:57:21;13.10;25.70
1413;DHT22;701;52.526;13.408;2022-09-29T07:59:47;13.10;25.50
1413;DHT22;701;52.526;13.408;2022-09-29T08:02:13;13.20;25.40
1413;DHT22;701;52.526;13.408;2022-09-29T08:04:39;13.30;25.40
1413;DHT22;701;52.526;13.408;2022-09-29T08:07:05;13.40;24.70
1413;DHT22;701;52.526;13.408;2022-09-29T08:09:30;13.40;24.80
1413;DHT22;701;52.526;13.408;2022-09-29T08:11:56;13.50;24.70
1413;DHT22;701;52.526;13.408;2022-09-29T08:14:21;13.70;24.60
1413;DHT22;701;52.526;13.408;2022-09-29T08:16:47;13.70;24.30
1413;DHT22;701;52.526;13.408;2022-09-29T08:19:13;13.90;24.00
1413;DHT22;701;52.526;13.408;2022-09-29T08:21:38;14.00;23.80
1413;DHT22;701;52.526;13.408;2022-09-29T08:24:05;14.10;23.20
1413;DHT22;701;52.526;13.408;2022-09-29T08:26:33;14.20;23.20
1413;DHT22;701;52.526;13.408;2022-09-29T08:29:00;14.30;22.80
1413;DHT22;701;52.526;13.408;2022-09-29T08:31:27;14.40;22.30
1413;DHT22;701;52.526;13.408;2022-09-29T08:33:56;14.50;22.10
1413;DHT22;701;52.526;13.408;2022-09-29T08:36:23;14.70;22.10
1413;DHT22;701;52.526;13.408;2022-09-29T08:38:51;14.90;21.60
1413;DHT22;701;52.526;13.408;2022-09-29T08:43:47;15.20;20.70
1413;DHT22;701;52.526;13.408;2022-09-29T08:46:25;15.50;20.50
1413;DHT22;701;52.526;13.408;2022-09-29T08:48:52;15.80;19.40
1413;DHT22;701;52.526;13.408;2022-09-29T08:51:37;16.00;19.20
1413;DHT22;701;52.526;13.408;2022-09-29T08:54:34;16.20;18.60
1413;DHT22;701;52.526;13.408;2022-09-29T08:57:01;16.40;17.10
1413;DHT22;701;52.526;13.408;2022-09-29T08:59:27;16.60;17.70
1413;DHT22;701;52.526;13.408;2022-09-29T09:02:07;16.90;17.30
1413;DHT22;701;52.526;13.408;2022-09-29T09:10:37;17.30;15.00
1413;DHT22;701;52.526;13.408;2022-09-29T09:13:16;17.50;14.80
1413;DHT22;701;52.526;13.408;2022-09-29T09:18:53;17.80;13.50
1413;DHT22;701;52.526;13.408;2022-09-29T09:21:40;17.80;13.40
1413;DHT22;701;52.526;13.408;2022-09-29T09:27:02;18.10;12.60
1413;DHT22;701;52.526;13.408;2022-09-29T09:29:38;18.10;13.40
1413;DHT22;701;52.526;13.408;2022-09-29T09:32:18;18.10;12.80
1413;DHT22;701;52.526;13.408;2022-09-29T09:34:55;18.20;12.60
1413;DHT22;701;52.526;13.408;2022-09-29T09:37:31;18.30;12.80
1413;DHT22;701;52.526;13.408;2022-09-29T09:42:36;18.50;11.60
1413;DHT22;701;52.526;13.408;2022-09-29T09:45:16;18.70;11.50
1413;DHT22;701;52.526;13.408;2022-09-29T09:47:52;18.90;11.10
1413;DHT22;701;52.526;13.408;2022-09-29T09:50:22;19.10;11.40
1413;DHT22;701;52.526;13.408;2022-09-29T09:52:57;19.30;10.80
1413;DHT22;701;52.526;13.408;2022-09-29T09:55:26;19.50;9.40
1413;DHT22;701;52.526;13.408;2022-09-29T09:58:21;19.70;10.30
1413;DHT22;701;52.526;13.408;2022-09-29T10:00:57;19.90;8.50
1413;DHT22;701;52.526;13.408;2022-09-29T10:03:23;20.10;8.50
1413;DHT22;701;52.526;13.408;2022-09-29T10:05:49;20.10;8.50
1413;DHT22;701;52.526;13.408;2022-09-29T10:08:27;20.30;8.70
1413;DHT22;701;52.526;13.408;2022-09-29T10:10:55;20.40;7.60
1413;DHT22;701;52.526;13.408;2022-09-29T10:13:24;20.50;7.90
1413;DHT22;701;52.526;13.408;2022-09-29T10:16:17;20.50;7.10
1413;DHT22;701;52.526;13.408;2022-09-29T10:18:46;20.50;6.70
1413;DHT22;701;52.526;13.408;2022-09-29T10:21:35;20.60;6.60
1413;DHT22;701;52.526;13.408;2022-09-29T10:24:02;20.60;5.20
1413;DHT22;701;52.526;13.408;2022-09-29T10:26:49;20.60;5.60
1413;DHT22;701;52.526;13.408;2022-09-29T10:29:37;20.50;4.90
1413;DHT22;701;52.526;13.408;2022-09-29T10:32:12;20.40;4.80
1413;DHT22;701;52.526;13.408;2022-09-29T10:35:04;20.30;5.30
1413;DHT22;701;52.526;13.408;2022-09-29T10:37:36;20.10;4.90
1413;DHT22;701;52.526;13.408;2022-09-29T10:42:38;19.90;5.30
1413;DHT22;701;52.526;13.408;2022-09-29T10:45:17;19.80;5.60
1413;DHT22;701;52.526;13.408;2022-09-29T10:50:25;19.80;5.30
1413;DHT22;701;52.526;13.408;2022-09-29T10:58:05;19.90;5.30
1413;DHT22;701;52.526;13.408;2022-09-29T11:00:37;20.00;5.20
1413;DHT22;701;52.526;13.408;2022-09-29T11:03:13;19.90;5.00
1413;DHT22;701;52.526;13.408;2022-09-29T11:05:54;19.70;5.10
1413;DHT22;701;52.526;13.408;2022-09-29T11:08:23;19.70;5.40
1413;DHT22;701;52.526;13.408;2022-09-29T11:11:08;19.60;5.60
1413;DHT22;701;52.526;13.408;2022-09-29T11:13:44;19.60;5.30
1413;DHT22;701;52.526;13.408;2022-09-29T11:16:16;19.60;5.00
1413;DHT22;701;52.526;13.408;2022-09-29T11:18:48;19.70;4.70
1413;DHT22;701;52.526;13.408;2022-09-29T11:24:04;19.60;4.30
1413;DHT22;701;52.526;13.408;2022-09-29T11:27:41;19.60;4.40
1413;DHT22;701;52.526;13.408;2022-09-29T11:29:49;19.50;4.70
1413;DHT22;701;52.526;13.408;2022-09-29T11:32:45;19.20;4.20
1413;DHT22;701;52.526;13.408;2022-09-29T11:46:05;18.20;6.40
1413;DHT22;701;52.526;13.408;2022-09-29T11:56:52;18.10;6.80
1413;DHT22;701;52.526;13.408;2022-09-29T11:59:30;18.10;6.30
1413;DHT22;701;52.526;13.408;2022-09-29T12:16:10;17.50;7.10
1413;DHT22;701;52.526;13.408;2022-09-29T12:18:39;17.40;7.20
1413;DHT22;701;52.526;13.408;2022-09-29T12:21:07;17.30;7.60
1413;DHT22;701;52.526;13.408;2022-09-29T12:23:35;17.20;7.90
1413;DHT22;701;52.526;13.408;2022-09-29T12:26:17;17.20;8.10
1413;DHT22;701;52.526;13.408;2022-09-29T12:31:37;17.30;8.20
1413;DHT22;701;52.526;13.408;2022-09-29T12:34:22;17.40;8.40
1413;DHT22;701;52.526;13.408;2022-09-29T12:37:02;17.60;8.70
1413;DHT22;701;52.526;13.408;2022-09-29T12:39:40;17.70;7.50
1413;DHT22;701;52.526;13.408;2022-09-29T12:42:31;17.80;7.50
1413;DHT22;701;52.526;13.408;2022-09-29T12:45:21;18.00;7.10
1413;DHT22;701;52.526;13.408;2022-09-29T12:54:02;18.30;6.60
1413;DHT22;701;52.526;13.408;2022-09-29T12:59:10;18.50;6.20
1413;DHT22;701;52.526;13.408;2022-09-29T13:01:39;18.70;5.80
1413;DHT22;701;52.526;13.408;2022-09-29T13:04:32;18.80;5.80
1413;DHT22;701;52.526;13.408;2022-09-29T13:12:38;19.00;5.20
1413;DHT22;701;52.526;13.408;2022-09-29T13:15:47;19.00;4.80
1413;DHT22;701;52.526;13.408;2022-09-29T13:29:28;18.20;5.00
1413;DHT22;701;52.526;13.408;2022-09-29T13:31:56;18.30;5.00
1413;DHT22;701;52.526;13.408;2022-09-29T13:34:29;18.30;4.90
1413;DHT22;701;52.526;13.408;2022-09-29T13:39:30;18.20;4.50
1413;DHT22;701;52.526;13.408;2022-09-29T13:42:39;18.10;4.60
1413;DHT22;701;52.526;13.408;2022-09-29T13:47:53;18.10;4.20
1413;DHT22;701;52.526;13.408;2022-09-29T13:50:45;18.00;4.50
1413;DHT22;701;52.526;13.408;2022-09-29T14:00:57;17.80;4.80
1413;DHT22;701;52.526;13.408;2022-09-29T14:08:37;17.70;4.80
1413;DHT22;701;52.526;13.408;2022-09-29T14:11:25;17.70;4.90
1413;DHT22;701;52.526;13.408;2022-09-29T14:14:13;17.60;5.00
1413;DHT22;701;52.526;13.408;2022-09-29T14:27:32;17.00;6.00
1413;DHT22;701;52.526;13.408;2022-09-29T14:30:18;16.90;6.20
1413;DHT22;701;52.526;13.408;2022-09-29T14:37:59;16.80;6.30
1413;DHT22;701;52.526;13.408;2022-09-29T14:40:25;16.90;6.40
1413;DHT22;701;52.526;13.408;2022-09-29T14:43:14;17.10;6.30
1413;DHT22;701;52.526;13.408;2022-09-29T14:55:37;17.00;5.90
1413;DHT22;701;52.526;13.408;2022-09-29T15:03:34;16.90;4.80
1413;DHT22;701;52.526;13.408;2022-09-29T15:06:20;17.00;4.80
1413;DHT22;701;52.526;13.408;2022-09-29T15:13:56;17.10;4.70
1413;DHT22;701;52.526;13.408;2022-09-29T15:22:34;16.80;5.40
1413;DHT22;701;52.526;13.408;2022-09-29T15:25:34;16.70;5.80
1413;DHT22;701;52.526;13.408;2022-09-29T15:30:36;16.50;5.70
1413;DHT22;701;52.526;13.408;2022-09-29T15:33:12;16.50;5.50
1413;DHT22;701;52.526;13.408;2022-09-29T15:35:42;16.30;5.60
1413;DHT22;701;52.526;13.408;2022-09-29T15:40:35;16.20;5.90
1413;DHT22;701;52.526;13.408;2022-09-29T15:43:25;16.10;5.90
1413;DHT22;701;52.526;13.408;2022-09-29T15:45:58;16.00;6.00
1413;DHT22;701;52.526;13.408;2022-09-29T15:48:26;16.00;5.80
1413;DHT22;701;52.526;13.408;2022-09-29T15:50:53;15.80;6.20
1413;DHT22;701;52.526;13.408;2022-09-29T15:53:21;15.70;6.40
1413;DHT22;701;52.526;13.408;2022-09-29T15:55:49;15.70;6.70
1413;DHT22;701;52.526;13.408;2022-09-29T16:00:55;15.60;7.20
1413;DHT22;701;52.526;13.408;2022-09-29T16:03:28;15.50;7.30
1413;DHT22;701;52.526;13.408;2022-09-29T16:06:02;15.40;7.50
1413;DHT22;701;52.526;13.408;2022-09-29T16:08:30;15.30;7.80
1413;DHT22;701;52.526;13.408;2022-09-29T16:11:00;15.20;7.90
1413;DHT22;701;52.526;13.408;2022-09-29T16:13:31;15.00;8.20
1413;DHT22;701;52.526;13.408;2022-09-29T16:16:05;14.90;8.40
1413;DHT22;701;52.526;13.408;2022-09-29T16:18:47;14.80;8.80
1413;DHT22;701;52.526;13.408;2022-09-29T16:21:23;14.60;9.30
1413;DHT22;701;52.526;13.408;2022-09-29T16:24:11;14.50;8.90
1413;DHT22;701;52.526;13.408;2022-09-29T16:26:40;14.40;9.20
1413;DHT22;701;52.526;13.408;2022-09-29T16:31:41;14.20;9.90
1413;DHT22;701;52.526;13.408;2022-09-29T16:36:58;13.90;10.40
1413;DHT22;701;52.526;13.408;2022-09-29T16:39:27;13.80;10.60
1413;DHT22;701;52.526;13.408;2022-09-29T16:41:56;13.70;11.20
1413;DHT22;701;52.526;13.408;2022-09-29T16:49:37;13.40;11.70
1413;DHT22;701;52.526;13.408;2022-09-29T16:57:57;13.20;12.80
1413;DHT22;701;52.526;13.408;2022-09-29T17:00:23;13.10;12.90
1413;DHT22;701;52.526;13.408;2022-09-29T17:02:50;13.10;13.10
1413;DHT22;701;52.526;13.408;2022-09-29T17:05:16;13.00;13.30
1413;DHT22;701;52.526;13.408;2022-09-29T17:07:42;12.90;13.50
1413;DHT22;701;52.526;13.408;2022-09-29T17:10:19;12.90;14.40
1413;DHT22;701;52.526;13.408;2022-09-29T17:12:46;12.80;15.10
1413;DHT22;701;52.526;13.408;2022-09-29T17:15:12;12.70;15.00
1413;DHT22;701;52.526;13.408;2022-09-29T17:17:38;12.70;15.60
1413;DHT22;701;52.526;13.408;2022-09-29T17:20:13;12.60;15.80
1413;DHT22;701;52.526;13.408;2022-09-29T17:22:39;12.60;16.80
1413;DHT22;701;52.526;13.408;2022-09-29T17:25:05;12.50;17.00
1413;DHT22;701;52.526;13.408;2022-09-29T17:27:32;12.50;17.80
1413;DHT22;701;52.526;13.408;2022-09-29T17:30:19;12.40;17.70
1413;DHT22;701;52.526;13.408;2022-09-29T17:32:48;12.40;18.00
1413;DHT22;701;52.526;13.408;2022-09-29T17:35:16;12.30;18.10
1413;DHT22;701;52.526;13.408;2022-09-29T17:37:42;12.30;18.40
1413;DHT22;701;52.526;13.408;2022-09-29T17:40:36;12.30;18.90
1413;DHT22;701;52.526;13.408;2022-09-29T17:43:06;12.30;20.30
1413;DHT22;701;52.526;13.408;2022-09-29T17:45:32;12.20;19.30
1413;DHT22;701;52.526;13.408;2022-09-29T17:48:06;12.20;19.30
1413;DHT22;701;52.526;13.408;2022-09-29T17:50:39;12.10;19.50
1413;DHT22;701;52.526;13.408;2022-09-29T17:53:06;12.10;19.50
1413;DHT22;701;52.526;13.408;2022-09-29T17:55:33;12.00;19.40
1413;DHT22;701;52.526;13.408;2022-09-29T17:57:59;12.00;19.80
1413;DHT22;701;52.526;13.408;2022-09-29T18:00:32;11.90;19.70
1413;DHT22;701;52.526;13.408;2022-09-29T18:03:09;11.90;19.90
1413;DHT22;701;52.526;13.408;2022-09-29T18:05:38;11.80;20.10
1413;DHT22;701;52.526;13.408;2022-09-29T18:08:05;11.80;20.40
1413;DHT22;701;52.526;13.408;2022-09-29T18:10:48;11.80;20.70
1413;DHT22;701;52.526;13.408;2022-09-29T18:13:14;11.70;20.80
1413;DHT22;701;52.526;13.408;2022-09-29T18:15:40;11.70;20.80
1413;DHT22;701;52.526;13.408;2022-09-29T18:18:10;11.70;21.20
1413;DHT22;701;52.526;13.408;2022-09-29T18:20:37;11.60;21.40
1413;DHT22;701;52.526;13.408;2022-09-29T18:23:05;11.60;21.40
1413;DHT22;701;52.526;13.408;2022-09-29T18:25:32;11.60;21.50
1413;DHT22;701;52.526;13.408;2022-09-29T18:27:58;11.50;21.50
1413;DHT22;701;52.526;13.408;2022-09-29T18:32:56;11.50;21.50
1413;DHT22;701;52.526;13.408;2022-09-29T18:35:29;11.50;21.70
1413;DHT22;701;52.526;13.408;2022-09-29T18:37:56;11.40;22.00
1413;DHT22;701;52.526;13.408;2022-09-29T18:40:23;11.40;22.00
1413;DHT22;701;52.526;13.408;2022-09-29T18:42:50;11.30;22.80
1413;DHT22;701;52.526;13.408;2022-09-29T18:45:23;11.30;22.60
1413;DHT22;701;52.526;13.408;2022-09-29T18:47:56;11.30;23.50
1413;DHT22;701;52.526;13.408;2022-09-29T18:50:32;11.20;22.90
1413;DHT22;701;52.526;13.408;2022-09-29T18:52:58;11.20;23.20
1413;DHT22;701;52.526;13.408;2022-09-29T18:55:27;11.20;23.20
1413;DHT22;701;52.526;13.408;2022-09-29T18:57:54;11.20;23.20
1413;DHT22;701;52.526;13.408;2022-09-29T19:00:26;11.20;23.50
1413;DHT22;701;52.526;13.408;2022-09-29T19:02:52;11.10;23.80
1413;DHT22;701;52.526;13.408;2022-09-29T19:05:23;11.10;23.90
1413;DHT22;701;52.526;13.408;2022-09-29T19:07:55;11.10;24.00
1413;DHT22;701;52.526;13.408;2022-09-29T19:10:21;11.10;24.30
1413;DHT22;701;52.526;13.408;2022-09-29T19:12:47;11.00;24.30
1413;DHT22;701;52.526;13.408;2022-09-29T19:15:19;11.00;24.30
1413;DHT22;701;52.526;13.408;2022-09-29T19:17:47;11.00;24.70
1413;DHT22;701;52.526;13.408;2022-09-29T19:20:14;10.90;24.70
1413;DHT22;701;52.526;13.408;2022-09-29T19:22:41;10.90;24.70
1413;DHT22;701;52.526;13.408;2022-09-29T19:25:13;10.90;24.60
1413;DHT22;701;52.526;13.408;2022-09-29T19:27:40;10.90;25.00
1413;DHT22;701;52.526;13.408;2022-09-29T19:30:08;10.80;25.60
1413;DHT22;701;52.526;13.408;2022-09-29T19:32:34;10.80;25.50
1413;DHT22;701;52.526;13.408;2022-09-29T19:34:59;10.80;26.10
1413;DHT22;701;52.526;13.408;2022-09-29T19:37:27;10.80;26.00
1413;DHT22;701;52.526;13.408;2022-09-29T19:39:55;10.80;26.20
1413;DHT22;701;52.526;13.408;2022-09-29T19:42:20;10.70;26.10
1413;DHT22;701;52.526;13.408;2022-09-29T19:44:46;10.70;26.30
1413;DHT22;701;52.526;13.408;2022-09-29T19:47:14;10.70;26.10
1413;DHT22;701;52.526;13.408;2022-09-29T19:49:40;10.70;26.20
1413;DHT22;701;52.526;13.408;2022-09-29T19:52:05;10.60;26.30
1413;DHT22;701;52.526;13.408;2022-09-29T19:54:34;10.60;26.80
1413;DHT22;701;52.526;13.408;2022-09-29T19:57:07;10.60;26.90
1413;DHT22;701;52.526;13.408;2022-09-29T19:59:35;10.60;27.00
1413;DHT22;701;52.526;13.408;2022-09-29T20:02:05;10.60;28.00
1413;DHT22;701;52.526;13.408;2022-09-29T20:04:33;10.50;27.30
1413;DHT22;701;52.526;13.408;2022-09-29T20:07:00;10.50;27.40
1413;DHT22;701;52.526;13.408;2022-09-29T20:09:26;10.50;27.40
1413;DHT22;701;52.526;13.408;2022-09-29T20:11:52;10.50;27.50
1413;DHT22;701;52.526;13.408;2022-09-29T20:14:20;10.50;28.00